createdAt,value
2022-12-13T00:01:24.742Z,97776.22
2022-12-13T00:03:56.628Z,97781.72
2022-12-13T00:06:25.555Z,97779.16
2022-12-13T00:08:53.432Z,97783.19
2022-12-13T00:11:21.112Z,97769.63
2022-12-13T00:13:48.612Z,97767.78
2022-12-13T00:16:18.003Z,97766.56
2022-12-13T00:18:51.075Z,97754.03
2022-12-13T00:21:20.452Z,97750.22
2022-12-13T00:23:48.294Z,97742.88
2022-12-13T00:26:18.397Z,97745.91
2022-12-13T00:28:49.187Z,97751.84
2022-12-13T00:31:53.588Z,97744.97
2022-12-13T00:34:05.047Z,97746.13
2022-12-13T00:36:32.382Z,97747.78
2022-12-13T00:39:02.710Z,97757.41
2022-12-13T00:41:32.469Z,97740.28
2022-12-13T00:44:00.195Z,97742.31
2022-12-13T00:46:28.293Z,97737.97
2022-12-13T00:48:57.732Z,97739.63
2022-12-13T00:51:26.176Z,97743.09
2022-12-13T00:53:53.820Z,97739.03
2022-12-13T00:56:23.547Z,97736.03
2022-12-13T00:58:52.306Z,97740.72
2022-12-13T01:01:28.509Z,97741.88
2022-12-13T01:03:57.864Z,97735.41
2022-12-13T01:06:45.614Z,97740.63
2022-12-13T01:09:18.978Z,97733.13
2022-12-13T01:11:46.731Z,97737.63
2022-12-13T01:14:14.838Z,97735.69
2022-12-13T01:16:42.234Z,97743.59
2022-12-13T01:19:09.669Z,97728.06
2022-12-13T01:21:37.109Z,97727.19
2022-12-13T01:24:05.838Z,97727.97
2022-12-13T01:26:33.718Z,97731.78
2022-12-13T01:29:01.704Z,97732.94
2022-12-13T01:31:29.398Z,97732.66
2022-12-13T01:33:56.792Z,97732.66
2022-12-13T01:36:27.409Z,97728.31
2022-12-13T01:38:57.974Z,97730.72
2022-12-13T01:41:28.288Z,97727.50
2022-12-13T01:44:03.741Z,97730.84
2022-12-13T01:46:33.354Z,97730.56
2022-12-13T01:49:19.365Z,97726.25
2022-12-13T01:51:58.300Z,97719.38
2022-12-13T01:54:33.431Z,97717.34
2022-12-13T01:57:03.837Z,97714.94
2022-12-13T01:59:31.545Z,97725.09
2022-12-13T02:02:01.020Z,97722.81
2022-12-13T02:04:55.423Z,97722.00
2022-12-13T02:07:26.937Z,97723.78
2022-12-13T02:09:57.411Z,97708.72
2022-12-13T02:12:31.340Z,97710.41
2022-12-13T02:15:05.765Z,97708.19
2022-12-13T02:17:54.653Z,97717.44
2022-12-13T02:20:35.640Z,97713.25
2022-12-13T02:23:21.033Z,97707.44
2022-12-13T02:26:13.949Z,97709.72
2022-12-13T02:28:56.389Z,97703.28
2022-12-13T02:31:35.722Z,97699.97
2022-12-13T02:34:27.392Z,97697.53
2022-12-13T02:37:00.696Z,97696.72
2022-12-13T02:39:41.476Z,97700.72
2022-12-13T02:42:22.683Z,97693.81
2022-12-13T02:45:20.362Z,97695.66
2022-12-13T02:47:51.784Z,97692.81
2022-12-13T02:50:20.344Z,97700.56
2022-12-13T02:52:47.863Z,97701.97
2022-12-13T02:55:16.526Z,97699.91
2022-12-13T02:57:45.696Z,97695.59
2022-12-13T03:00:17.365Z,97689.88
2022-12-13T03:02:53.632Z,97695.88
2022-12-13T03:05:39.510Z,97698.22
2022-12-13T03:08:21.522Z,97695.66
2022-12-13T03:11:09.228Z,97699.34
2022-12-13T03:13:39.623Z,97694.91
2022-12-13T03:16:23.543Z,97688.19
2022-12-13T03:18:53.281Z,97685.56
2022-12-13T03:21:22.877Z,97683.50
2022-12-13T03:23:50.219Z,97682.91
2022-12-13T03:26:26.208Z,97684.91
2022-12-13T03:28:53.801Z,97678.03
2022-12-13T03:31:21.370Z,97673.66
2022-12-13T03:33:48.923Z,97674.53
2022-12-13T03:36:17.142Z,97674.75
2022-12-13T03:38:45.223Z,97674.91
2022-12-13T03:41:18.915Z,97673.28
2022-12-13T03:43:46.401Z,97664.78
2022-12-13T03:46:13.884Z,97680.19
2022-12-13T03:48:41.421Z,97673.03
2022-12-13T03:51:08.840Z,97660.53
2022-12-13T03:53:36.220Z,97667.41
2022-12-13T03:56:05.401Z,97662.06
2022-12-13T03:58:35.381Z,97663.81
2022-12-13T04:01:09.414Z,97661.28
2022-12-13T04:03:38.091Z,97662.19
2022-12-13T04:06:06.248Z,97654.72
2022-12-13T04:08:34.427Z,97655.66
2022-12-13T04:11:22.146Z,97658.31
2022-12-13T04:13:49.468Z,97639.59
2022-12-13T04:16:16.847Z,97645.41
2022-12-13T04:18:44.266Z,97650.25
2022-12-13T04:21:11.662Z,97652.81
2022-12-13T04:23:39.069Z,97660.59
2022-12-13T04:26:06.525Z,97655.13
2022-12-13T04:28:34.014Z,97657.88
2022-12-13T04:31:01.323Z,97659.94
2022-12-13T04:33:28.732Z,97651.31
2022-12-13T04:35:56.100Z,97660.94
2022-12-13T04:38:23.389Z,97661.06
2022-12-13T04:40:50.783Z,97660.31
2022-12-13T04:43:18.278Z,97656.09
2022-12-13T04:45:45.660Z,97653.72
2022-12-13T04:48:13.721Z,97652.81
2022-12-13T04:51:01.042Z,97656.75
2022-12-13T04:53:29.743Z,97645.81
2022-12-13T04:55:57.214Z,97644.88
2022-12-13T04:58:24.820Z,97643.19
2022-12-13T05:00:52.310Z,97637.00
2022-12-13T05:03:19.636Z,97635.41
2022-12-13T05:05:47.023Z,97632.25
2022-12-13T05:08:14.477Z,97629.03
2022-12-13T05:10:41.781Z,97632.38
2022-12-13T05:13:09.146Z,97644.72
2022-12-13T05:15:36.496Z,97646.47
2022-12-13T05:18:10.216Z,97640.94
2022-12-13T05:20:39.300Z,97633.78
2022-12-13T05:23:06.746Z,97638.66
2022-12-13T05:25:36.933Z,97637.56
2022-12-13T05:28:08.759Z,97639.88
2022-12-13T05:30:53.058Z,97642.53
2022-12-13T05:33:22.537Z,97637.84
2022-12-13T05:35:49.965Z,97645.13
2022-12-13T05:38:17.587Z,97639.81
2022-12-13T05:40:45.308Z,97632.19
2022-12-13T05:43:21.545Z,97629.31
2022-12-13T05:45:49.329Z,97630.69
2022-12-13T05:48:24.448Z,97635.84
2022-12-13T05:51:10.619Z,97628.16
2022-12-13T05:53:40.751Z,97616.88
2022-12-13T05:56:09.377Z,97628.16
2022-12-13T05:58:38.287Z,97631.56
2022-12-13T06:01:08.528Z,97635.94
2022-12-13T06:03:36.373Z,97627.78
2022-12-13T06:06:05.327Z,97626.97
2022-12-13T06:08:33.086Z,97624.38
2022-12-13T06:11:11.875Z,97628.53
2022-12-13T06:13:42.791Z,97633.19
2022-12-13T06:16:21.687Z,97627.38
2022-12-13T06:18:55.915Z,97626.28
2022-12-13T06:21:40.676Z,97629.69
2022-12-13T06:24:11.156Z,97632.47
2022-12-13T06:26:38.588Z,97625.78
2022-12-13T06:29:05.922Z,97632.72
2022-12-13T06:31:33.252Z,97628.41
2022-12-13T06:34:14.879Z,97626.88
2022-12-13T06:36:43.257Z,97614.91
2022-12-13T06:39:10.652Z,97627.69
2022-12-13T06:41:37.998Z,97622.53
2022-12-13T06:44:05.748Z,97620.72
2022-12-13T06:46:33.414Z,97633.63
2022-12-13T06:49:01.401Z,97635.38
2022-12-13T06:51:32.518Z,97643.91
2022-12-13T06:54:02.480Z,97655.91
2022-12-13T06:56:30.663Z,97649.91
2022-12-13T06:59:01.977Z,97640.50
2022-12-13T07:01:37.790Z,97637.06
2022-12-13T07:04:29.978Z,97643.75
2022-12-13T07:06:53.866Z,97643.00
2022-12-13T07:09:21.265Z,97647.22
2022-12-13T07:11:52.271Z,97655.66
2022-12-13T07:14:20.142Z,97649.81
2022-12-13T07:16:47.561Z,97649.78
2022-12-13T07:19:23.431Z,97645.31
2022-12-13T07:21:52.201Z,97644.09
2022-12-13T07:24:19.654Z,97650.00
2022-12-13T07:26:47.327Z,97641.25
2022-12-13T07:29:22.651Z,97648.06
2022-12-13T07:31:50.419Z,97648.13
2022-12-13T07:34:17.889Z,97656.59
2022-12-13T07:36:45.281Z,97654.50
2022-12-13T07:39:12.610Z,97657.16
2022-12-13T07:41:39.952Z,97656.09
2022-12-13T07:44:08.008Z,97657.59
2022-12-13T07:46:35.498Z,97656.44
2022-12-13T07:49:04.080Z,97661.03
2022-12-13T07:51:33.081Z,97671.06
2022-12-13T07:54:00.818Z,97673.34
2022-12-13T07:56:34.331Z,97674.31
2022-12-13T07:59:01.819Z,97678.38
2022-12-13T08:01:34.842Z,97686.16
2022-12-13T08:04:03.513Z,97684.28
2022-12-13T08:06:34.405Z,97685.44
2022-12-13T08:09:01.867Z,97688.00
2022-12-13T08:11:29.241Z,97685.09
2022-12-13T08:13:56.597Z,97685.88
2022-12-13T08:16:27.157Z,97687.47
2022-12-13T08:19:02.306Z,97692.69
2022-12-13T08:21:55.346Z,97690.44
2022-12-13T08:24:28.444Z,97694.44
2022-12-13T08:27:01.888Z,97702.88
2022-12-13T08:29:33.273Z,97699.16
2022-12-13T08:32:20.439Z,97700.66
2022-12-13T08:34:47.799Z,97702.41
2022-12-13T08:37:15.135Z,97694.31
2022-12-13T08:39:42.479Z,97693.25
2022-12-13T08:42:20.052Z,97693.09
2022-12-13T08:44:50.282Z,97692.09
2022-12-13T08:47:23.036Z,97685.25
2022-12-13T08:49:51.340Z,97692.06
2022-12-13T08:52:19.493Z,97703.50
2022-12-13T08:54:46.898Z,97709.91
2022-12-13T08:57:14.241Z,97711.72
2022-12-13T08:59:41.599Z,97710.72
2022-12-13T09:02:13.535Z,97696.59
2022-12-13T09:04:41.021Z,97699.09
2022-12-13T09:07:08.817Z,97686.34
2022-12-13T09:09:37.097Z,97687.25
2022-12-13T09:12:10.471Z,97687.56
2022-12-13T09:14:53.366Z,97687.84
2022-12-13T09:17:37.131Z,97691.59
2022-12-13T09:20:09.937Z,97686.41
2022-12-13T09:23:01.121Z,97678.13
2022-12-13T09:25:37.330Z,97684.38
2022-12-13T09:28:09.499Z,97675.56
2022-12-13T09:30:37.696Z,97671.34
2022-12-13T09:33:29.549Z,97678.28
2022-12-13T09:35:52.911Z,97672.91
2022-12-13T09:38:20.328Z,97673.53
2022-12-13T09:40:49.311Z,97665.00
2022-12-13T09:43:32.194Z,97667.47
2022-12-13T09:46:13.053Z,97663.06
2022-12-13T09:48:50.461Z,97672.56
2022-12-13T09:51:28.303Z,97673.03
2022-12-13T09:53:58.038Z,97675.59
2022-12-13T09:56:25.440Z,97683.31
2022-12-13T09:58:55.409Z,97671.41
2022-12-13T10:01:23.822Z,97666.16
2022-12-13T10:03:56.075Z,97666.69
2022-12-13T10:06:28.706Z,97656.06
2022-12-13T10:08:59.359Z,97650.72
2022-12-13T10:11:32.609Z,97656.22
2022-12-13T10:14:45.943Z,97650.59
2022-12-13T10:17:19.207Z,97648.28
2022-12-13T10:19:51.849Z,97640.56
2022-12-13T10:22:22.969Z,97640.22
2022-12-13T10:24:54.879Z,97634.75
2022-12-13T10:27:35.249Z,97641.81
2022-12-13T10:30:07.109Z,97636.44
2022-12-13T10:32:44.576Z,97641.38
2022-12-13T10:35:30.413Z,97631.50
2022-12-13T10:38:03.198Z,97628.00
2022-12-13T10:40:40.620Z,97631.97
2022-12-13T10:43:36.084Z,97625.56
2022-12-13T10:46:15.902Z,97616.19
2022-12-13T10:48:53.079Z,97613.75
2022-12-13T10:51:21.891Z,97610.63
2022-12-13T10:53:52.601Z,97606.34
2022-12-13T10:56:23.923Z,97611.63
2022-12-13T10:59:31.184Z,97613.16
2022-12-13T11:01:58.868Z,97622.81
2022-12-13T11:04:31.515Z,97629.16
2022-12-13T11:07:21.962Z,97623.72
2022-12-13T11:09:52.470Z,97612.66
2022-12-13T11:12:23.069Z,97606.91
2022-12-13T11:14:54.480Z,97613.72
2022-12-13T11:17:29.709Z,97603.47
2022-12-13T11:20:00.746Z,97598.59
2022-12-13T11:22:30.556Z,97606.75
2022-12-13T11:25:19.640Z,97606.47
2022-12-13T11:28:26.459Z,97589.63
2022-12-13T11:31:03.512Z,97589.25
2022-12-13T11:34:08.181Z,97580.81
2022-12-13T11:36:41.458Z,97581.81
2022-12-13T11:39:30.849Z,97589.88
2022-12-13T11:42:33.967Z,97568.19
2022-12-13T11:45:23.497Z,97584.41
2022-12-13T11:48:04.764Z,97581.75
2022-12-13T11:50:38.695Z,97586.03
2022-12-13T11:53:27.632Z,97587.50
2022-12-13T11:56:01.373Z,97572.75
2022-12-13T12:01:55.821Z,97566.78
2022-12-13T12:04:35.377Z,97564.75
2022-12-13T12:07:31.694Z,97560.50
2022-12-13T12:10:26.945Z,97562.84
2022-12-13T12:13:01.640Z,97561.31
2022-12-13T12:15:49.109Z,97564.44
2022-12-13T12:18:23.152Z,97564.13
2022-12-13T12:21:16.426Z,97542.97
2022-12-13T12:24:20.299Z,97553.81
2022-12-13T12:27:22.628Z,97558.47
2022-12-13T12:30:10.869Z,97554.25
2022-12-13T12:33:02.600Z,97548.53
2022-12-13T12:36:03.115Z,97540.81
2022-12-13T12:38:33.232Z,97548.06
2022-12-13T12:41:21.558Z,97552.56
2022-12-13T12:44:11.788Z,97550.47
2022-12-13T12:47:09.150Z,97566.63
2022-12-13T12:49:57.482Z,97565.75
2022-12-13T12:52:59.000Z,97571.72
2022-12-13T12:55:51.570Z,97573.19
2022-12-13T12:58:43.668Z,97552.66
2022-12-13T13:01:23.231Z,97550.94
2022-12-13T13:03:53.397Z,97539.63
2022-12-13T13:06:45.389Z,97526.19
2022-12-13T13:09:24.511Z,97528.47
2022-12-13T13:11:57.583Z,97515.97
2022-12-13T13:14:36.975Z,97514.13
2022-12-13T13:17:16.520Z,97517.47
2022-12-13T13:20:04.140Z,97512.28
2022-12-13T13:22:43.038Z,97514.19
2022-12-13T13:25:22.671Z,97511.53
2022-12-13T13:27:51.269Z,97523.19
2022-12-13T13:30:25.713Z,97525.91
2022-12-13T13:32:54.964Z,97528.19
2022-12-13T13:35:32.046Z,97530.22
2022-12-13T13:38:00.665Z,97527.34
2022-12-13T13:40:38.627Z,97532.59
2022-12-13T13:43:06.114Z,97534.31
2022-12-13T13:45:54.126Z,97537.22
2022-12-13T13:48:36.410Z,97530.94
2022-12-13T13:51:22.266Z,97529.03
2022-12-13T13:54:22.404Z,97532.03
2022-12-13T13:58:07.564Z,97542.66
2022-12-13T14:00:41.123Z,97555.25
2022-12-13T14:03:49.177Z,97545.13
2022-12-13T14:06:49.700Z,97551.38
2022-12-13T14:09:54.533Z,97552.06
2022-12-13T14:12:24.579Z,97554.03
2022-12-13T14:15:25.588Z,97541.84
2022-12-13T14:18:21.112Z,97544.66
2022-12-13T14:21:15.833Z,97534.63
2022-12-13T14:24:17.261Z,97537.38
2022-12-13T14:27:08.304Z,97543.09
2022-12-13T14:29:57.637Z,97541.38
2022-12-13T14:32:32.842Z,97542.25
2022-12-13T14:35:25.297Z,97538.28
2022-12-13T14:38:00.705Z,97544.53
2022-12-13T14:40:34.979Z,97541.09
2022-12-13T14:43:02.894Z,97539.34
2022-12-13T14:45:33.303Z,97535.19
2022-12-13T14:48:05.849Z,97536.94
2022-12-13T14:50:35.575Z,97533.63
2022-12-13T14:53:03.398Z,97537.66
2022-12-13T14:55:33.379Z,97545.78
2022-12-13T14:58:02.642Z,97527.28
2022-12-13T15:00:36.138Z,97527.16
2022-12-13T15:03:05.482Z,97524.75
2022-12-13T15:05:37.410Z,97524.03
2022-12-13T15:08:10.680Z,97523.94
2022-12-13T15:10:48.519Z,97528.72
2022-12-13T15:13:35.562Z,97528.50
2022-12-13T15:16:10.609Z,97532.28
2022-12-13T15:18:41.579Z,97528.38
2022-12-13T15:21:22.824Z,97516.50
2022-12-13T15:23:53.981Z,97516.78
2022-12-13T15:26:30.327Z,97518.72
2022-12-13T15:29:00.695Z,97501.56
2022-12-13T15:31:28.874Z,97499.16
2022-12-13T15:34:30.382Z,97491.53
2022-12-13T15:37:12.311Z,97493.28
2022-12-13T15:40:08.617Z,97496.84
2022-12-13T15:42:38.463Z,97496.00
2022-12-13T15:45:25.685Z,97493.59
2022-12-13T15:47:54.345Z,97489.25
2022-12-13T15:50:43.802Z,97485.94
2022-12-13T15:53:34.003Z,97480.59
2022-12-13T15:56:07.908Z,97472.25
2022-12-13T15:58:37.905Z,97466.34
2022-12-13T16:01:05.638Z,97476.75
2022-12-13T16:03:44.586Z,97471.09
2022-12-13T16:06:18.272Z,97467.56
2022-12-13T16:08:49.444Z,97473.50
2022-12-13T16:11:29.591Z,97473.25
2022-12-13T16:14:27.022Z,97467.44
2022-12-13T16:16:55.265Z,97461.47
2022-12-13T16:19:23.042Z,97465.72
2022-12-13T16:21:50.457Z,97444.41
2022-12-13T16:24:17.866Z,97446.09
2022-12-13T16:26:49.012Z,97440.94
2022-12-13T16:29:19.510Z,97450.22
2022-12-13T16:31:47.319Z,97446.81
2022-12-13T16:34:18.176Z,97445.13
2022-12-13T16:36:47.489Z,97444.22
2022-12-13T16:39:15.601Z,97447.84
2022-12-13T16:41:44.848Z,97451.19
2022-12-13T16:44:21.983Z,97461.59
2022-12-13T16:47:12.941Z,97461.59
2022-12-13T16:49:37.104Z,97453.69
2022-12-13T16:52:07.546Z,97457.97
2022-12-13T16:54:35.596Z,97459.06
2022-12-13T16:57:02.933Z,97451.66
2022-12-13T16:59:30.530Z,97455.81
2022-12-13T17:01:58.075Z,97450.53
2022-12-13T17:04:27.411Z,97455.50
2022-12-13T17:06:55.546Z,97453.94
2022-12-13T17:09:25.002Z,97453.66
2022-12-13T17:11:52.574Z,97448.75
2022-12-13T17:14:20.017Z,97451.56
2022-12-13T17:16:47.923Z,97445.50
2022-12-13T17:19:15.669Z,97445.22
2022-12-13T17:21:43.103Z,97448.66
2022-12-13T17:24:10.541Z,97455.81
2022-12-13T17:26:37.829Z,97446.75
2022-12-13T17:29:05.251Z,97446.56
2022-12-13T17:31:35.644Z,97445.78
2022-12-13T17:34:04.411Z,97452.31
2022-12-13T17:36:31.896Z,97441.16
2022-12-13T17:38:59.758Z,97450.59
2022-12-13T17:41:27.175Z,97451.38
2022-12-13T17:44:00.082Z,97445.31
2022-12-13T17:46:27.531Z,97441.94
2022-12-13T17:48:55.021Z,97427.41
2022-12-13T17:51:22.498Z,97426.56
2022-12-13T17:53:49.780Z,97432.03
2022-12-13T17:56:17.860Z,97429.66
2022-12-13T17:58:45.906Z,97435.44
2022-12-13T18:01:21.649Z,97439.13
2022-12-13T18:03:51.953Z,97433.53
2022-12-13T18:06:19.672Z,97434.72
2022-12-13T18:08:47.821Z,97433.88
2022-12-13T18:11:33.089Z,97420.84
2022-12-13T18:14:02.765Z,97411.19
2022-12-13T18:16:36.518Z,97409.25
2022-12-13T18:19:10.961Z,97418.63
2022-12-13T18:21:38.377Z,97412.81
2022-12-13T18:24:06.940Z,97409.25
2022-12-13T18:26:34.587Z,97402.38
2022-12-13T18:29:02.848Z,97405.72
2022-12-13T18:31:30.282Z,97413.34
2022-12-13T18:33:57.766Z,97410.63
2022-12-13T18:36:25.781Z,97412.06
2022-12-13T18:38:53.406Z,97413.75
2022-12-13T18:41:23.350Z,97414.94
2022-12-13T18:44:07.928Z,97421.78
2022-12-13T18:46:37.511Z,97419.47
2022-12-13T18:49:05.914Z,97414.97
2022-12-13T18:51:33.932Z,97408.16
2022-12-13T18:54:01.310Z,97406.47
2022-12-13T18:56:28.770Z,97397.03
2022-12-13T18:58:58.186Z,97401.97
2022-12-13T19:01:30.351Z,97402.78
2022-12-13T19:03:57.840Z,97397.81
2022-12-13T19:06:26.988Z,97388.28
2022-12-13T19:08:56.763Z,97381.19
2022-12-13T19:11:26.155Z,97372.66
2022-12-13T19:13:53.780Z,97382.94
2022-12-13T19:16:22.223Z,97374.16
2022-12-13T19:18:50.120Z,97380.69
2022-12-13T19:21:19.393Z,97371.06
2022-12-13T19:23:53.206Z,97360.72
2022-12-13T19:26:24.373Z,97369.63
2022-12-13T19:28:51.775Z,97357.88
2022-12-13T19:31:19.263Z,97347.47
2022-12-13T19:33:47.718Z,97326.84
2022-12-13T19:36:15.738Z,97319.78
2022-12-13T19:38:43.705Z,97311.97
2022-12-13T19:41:16.575Z,97311.31
2022-12-13T19:43:50.631Z,97317.19
2022-12-13T19:46:19.796Z,97311.06
2022-12-13T19:48:47.437Z,97311.78
2022-12-13T19:51:15.079Z,97307.25
2022-12-13T19:53:42.603Z,97319.47
2022-12-13T19:56:11.665Z,97317.44
2022-12-13T19:58:39.765Z,97322.50
2022-12-13T20:01:07.925Z,97322.50
2022-12-13T20:03:37.065Z,97331.09
2022-12-13T20:06:05.915Z,97321.59
2022-12-13T20:08:33.507Z,97321.16
2022-12-13T20:11:05.751Z,97316.66
2022-12-13T20:13:34.740Z,97317.78
2022-12-13T20:16:03.082Z,97319.53
2022-12-13T20:18:30.751Z,97313.34
2022-12-13T20:21:11.577Z,97309.13
2022-12-13T20:23:39.732Z,97315.19
2022-12-13T20:26:10.305Z,97305.97
2022-12-13T20:28:38.143Z,97300.59
2022-12-13T20:31:07.784Z,97288.22
2022-12-13T20:33:36.027Z,97283.91
2022-12-13T20:36:26.126Z,97283.38
2022-12-13T20:38:56.128Z,97281.97
2022-12-13T20:41:25.406Z,97274.22
2022-12-13T20:43:54.087Z,97273.81
2022-12-13T20:46:22.324Z,97287.28
2022-12-13T20:48:50.215Z,97287.72
2022-12-13T20:51:19.880Z,97287.28
2022-12-13T20:53:48.839Z,97283.66
2022-12-13T20:56:21.365Z,97280.97
2022-12-13T20:58:49.152Z,97276.81
2022-12-13T21:01:19.779Z,97267.63
2022-12-13T21:03:47.260Z,97270.97
2022-12-13T21:06:15.115Z,97277.47
2022-12-13T21:08:51.631Z,97283.06
2022-12-13T21:11:26.103Z,97278.09
2022-12-13T21:14:20.888Z,97284.28
2022-12-13T21:16:50.565Z,97278.09
2022-12-13T21:19:21.328Z,97284.56
2022-12-13T21:21:49.146Z,97278.53
2022-12-13T21:24:18.076Z,97274.41
2022-12-13T21:26:45.688Z,97279.09
2022-12-13T21:29:13.801Z,97279.53
2022-12-13T21:31:48.806Z,97282.78
2022-12-13T21:34:16.918Z,97267.13
2022-12-13T21:36:47.116Z,97271.25
2022-12-13T21:39:16.023Z,97271.34
2022-12-13T21:41:43.408Z,97260.53
2022-12-13T21:44:12.167Z,97252.84
2022-12-13T21:49:27.106Z,97242.56
2022-12-13T21:51:55.067Z,97242.63
2022-12-13T21:54:22.738Z,97237.66
2022-12-13T21:57:09.088Z,97237.38
2022-12-13T21:59:36.526Z,97235.06
2022-12-13T22:02:12.464Z,97231.47
2022-12-13T22:04:43.492Z,97238.94
2022-12-13T22:07:13.392Z,97243.28
2022-12-13T22:09:41.160Z,97236.22
2022-12-13T22:12:10.404Z,97235.94
2022-12-13T22:14:38.402Z,97232.09
2022-12-13T22:17:05.765Z,97219.56
2022-12-13T22:19:33.254Z,97216.00
2022-12-13T22:22:00.781Z,97211.81
2022-12-13T22:24:28.225Z,97205.56
2022-12-13T22:26:55.550Z,97202.28
2022-12-13T22:29:22.987Z,97205.53
2022-12-13T22:31:50.631Z,97199.06
2022-12-13T22:34:18.125Z,97205.03
2022-12-13T22:36:45.477Z,97200.94
2022-12-13T22:39:19.577Z,97190.97
2022-12-13T22:41:47.643Z,97182.00
2022-12-13T22:44:16.272Z,97182.59
2022-12-13T22:46:43.718Z,97187.81
2022-12-13T22:49:12.036Z,97186.00
2022-12-13T22:51:39.759Z,97189.16
2022-12-13T22:54:07.765Z,97186.16
2022-12-13T22:56:35.489Z,97196.50
2022-12-13T22:59:04.168Z,97182.94
2022-12-13T23:01:33.386Z,97174.09
2022-12-13T23:04:01.080Z,97164.63
2022-12-13T23:06:30.584Z,97151.25
2022-12-13T23:09:00.162Z,97145.91
2022-12-13T23:11:47.641Z,97134.94
2022-12-13T23:14:20.237Z,97144.09
2022-12-13T23:16:47.749Z,97154.63
2022-12-13T23:19:41.063Z,97146.63
2022-12-13T23:22:07.198Z,97136.28
2022-12-13T23:24:34.576Z,97150.97
2022-12-13T23:27:01.954Z,97160.38
2022-12-13T23:29:29.287Z,97162.06
2022-12-13T23:31:56.950Z,97153.09
2022-12-13T23:34:24.260Z,97165.69
2022-12-13T23:36:51.718Z,97139.00
2022-12-13T23:39:19.015Z,97136.28
2022-12-13T23:41:46.500Z,97127.03
2022-12-13T23:44:13.876Z,97129.78
2022-12-13T23:46:41.259Z,97140.06
2022-12-13T23:49:09.858Z,97151.94
2022-12-13T23:51:37.918Z,97143.31
2022-12-13T23:54:08.274Z,97138.53
2022-12-13T23:56:35.722Z,97133.84
2022-12-13T23:59:03.148Z,97146.38
